Aérodrome :
LOGIN :

S'inscrire | Disclaimer

   EN    FR    IT 

 










Légende :    VFR   VFR Marginal   IFR   IFR Intensif   IFR Très Intensif
Visi : 
Plafond : 
>= 8 km
>= 3000ft
5 à 8 km
1000 à 3000 ft
1500m à 5 km
500 à 1000 ft
800 à 1500m
200 à 500 ft
< 800m
< 200 ft
Symboles :   Orages  Brouillard  Fortes neiges  Fortes précipitations  Vent > 20 kt
SIGMETs :   Divers  Orages  Givrage  Turbulence  Onde Orograph.  Cendres Volcan.






- Altitude de l'aérodrome : 39 ft
- Code IATA : SUF


LICA - Lamezia Terme

DERNIER METAR :
  • 240820Z AUTO 24010KT 210V270 9999 NCD 16/08 Q1010

METARs EXPIRÉS :
  • 240750Z AUTO 23008KT 190V260 9999 FEW039/// 17/08 Q1011
  • 240720Z AUTO 22007KT 190V250 9999 SCT040/// SCT056/// 16/08 Q1011
  • 240650Z AUTO 20008KT 180V240 9999 SCT055/// 16/07 Q1011
  • 240620Z AUTO 18003KT 140V230 9999 NCD 15/08 Q1011
  • 240550Z AUTO 16003KT 090V240 9999 FEW040/// 13/08 Q1011
  • 240520Z AUTO 17003KT 120V240 9999 SCT040/// 12/07 Q1011
  • 240450Z AUTO 17003KT 100V200 9999 OVC036/// 12/07 Q1011
  • 240420Z AUTO 24005KT 170V270 9999 BKN039/// 13/07 Q1011
  • 240350Z AUTO 25007KT 9999 BKN038/// 14/06 Q1010
  • 240320Z AUTO 25007KT 9999 BKN036/// 13/07 Q1010

TAF TAF LICA
Valide du 24 à 06h jusqu'au 25 à 06h UTC


240500Z 2406/2506 28015KT 9999 SCT040
TEMPO 2407/2412 SHRA
TEMPO 2408/2415 27016G26KT
TEMPO 2412/2418 4000 TSRA



MET'MAP, la Météo Aéronautique d'un coup d'oeil ! - Copyright ORBIFLY Décembre 2007 - Disclaimer

ORBIFLY MET'MAP TEAM :

Programmation & Développement : Alexandra Zaïnal
Sur une idée originale de : Baudouin d'Aumeries
Soutien technique & logistique : Manuel Goepfert
Assistance : Marc-Olivier Méhu




SOURCES & CREDITS :

   NOAA